sensor_id;sensor_type;location;lat;lon;timestamp;P1;durP1;ratioP1;P2;durP2;ratioP2
19191;SDS011;9728;48.194;16.346;2022-09-25T00:04:28;6.57;;;4.20;;
19191;SDS011;9728;48.194;16.346;2022-09-25T00:09:34;6.18;;;4.22;;
19191;SDS011;9728;48.194;16.346;2022-09-25T00:14:37;6.72;;;4.43;;
19191;SDS011;9728;48.194;16.346;2022-09-25T00:19:41;6.95;;;4.50;;
19191;SDS011;9728;48.194;16.346;2022-09-25T00:24:54;5.38;;;4.32;;
19191;SDS011;9728;48.194;16.346;2022-09-25T00:29:58;4.68;;;3.58;;
19191;SDS011;9728;48.194;16.346;2022-09-25T00:35:02;5.47;;;3.50;;
19191;SDS011;9728;48.194;16.346;2022-09-25T00:40:08;4.05;;;3.38;;
19191;SDS011;9728;48.194;16.346;2022-09-25T00:45:14;5.57;;;3.55;;
19191;SDS011;9728;48.194;16.346;2022-09-25T00:55:42;4.22;;;3.00;;
19191;SDS011;9728;48.194;16.346;2022-09-25T01:00:46;5.40;;;2.97;;
19191;SDS011;9728;48.194;16.346;2022-09-25T01:05:50;4.53;;;3.10;;
19191;SDS011;9728;48.194;16.346;2022-09-25T01:10:56;4.22;;;3.33;;
19191;SDS011;9728;48.194;16.346;2022-09-25T01:16:03;5.97;;;3.25;;
19191;SDS011;9728;48.194;16.346;2022-09-25T01:26:46;3.80;;;2.90;;
19191;SDS011;9728;48.194;16.346;2022-09-25T01:32:04;3.58;;;2.55;;
19191;SDS011;9728;48.194;16.346;2022-09-25T01:37:15;3.63;;;2.63;;
19191;SDS011;9728;48.194;16.346;2022-09-25T01:42:28;4.88;;;3.28;;
19191;SDS011;9728;48.194;16.346;2022-09-25T01:47:38;4.65;;;3.17;;
19191;SDS011;9728;48.194;16.346;2022-09-25T01:52:42;4.25;;;3.17;;
19191;SDS011;9728;48.194;16.346;2022-09-25T01:57:49;4.03;;;2.97;;
19191;SDS011;9728;48.194;16.346;2022-09-25T02:02:59;4.22;;;3.03;;
19191;SDS011;9728;48.194;16.346;2022-09-25T02:08:12;4.57;;;3.60;;
19191;SDS011;9728;48.194;16.346;2022-09-25T02:13:19;3.92;;;3.45;;
19191;SDS011;9728;48.194;16.346;2022-09-25T02:18:26;4.70;;;3.10;;
19191;SDS011;9728;48.194;16.346;2022-09-25T02:23:50;4.50;;;3.20;;
19191;SDS011;9728;48.194;16.346;2022-09-25T02:28:55;4.03;;;3.15;;
19191;SDS011;9728;48.194;16.346;2022-09-25T02:34:00;4.32;;;2.90;;
19191;SDS011;9728;48.194;16.346;2022-09-25T02:39:05;4.18;;;3.35;;
19191;SDS011;9728;48.194;16.346;2022-09-25T02:44:14;4.72;;;3.60;;
19191;SDS011;9728;48.194;16.346;2022-09-25T02:49:27;5.07;;;3.30;;
19191;SDS011;9728;48.194;16.346;2022-09-25T02:54:43;4.55;;;2.90;;
19191;SDS011;9728;48.194;16.346;2022-09-25T02:59:49;5.40;;;3.15;;
19191;SDS011;9728;48.194;16.346;2022-09-25T03:04:57;4.22;;;3.35;;
19191;SDS011;9728;48.194;16.346;2022-09-25T03:10:02;3.97;;;3.42;;
19191;SDS011;9728;48.194;16.346;2022-09-25T03:15:07;4.30;;;3.42;;
19191;SDS011;9728;48.194;16.346;2022-09-25T03:20:13;4.40;;;3.60;;
19191;SDS011;9728;48.194;16.346;2022-09-25T03:25:16;5.15;;;4.20;;
19191;SDS011;9728;48.194;16.346;2022-09-25T03:30:20;4.45;;;3.65;;
19191;SDS011;9728;48.194;16.346;2022-09-25T03:35:26;4.57;;;3.63;;
19191;SDS011;9728;48.194;16.346;2022-09-25T03:40:29;4.50;;;3.35;;
19191;SDS011;9728;48.194;16.346;2022-09-25T03:45:33;4.60;;;3.42;;
19191;SDS011;9728;48.194;16.346;2022-09-25T03:50:37;4.65;;;3.60;;
19191;SDS011;9728;48.194;16.346;2022-09-25T03:55:42;5.70;;;4.30;;
19191;SDS011;9728;48.194;16.346;2022-09-25T04:00:48;4.97;;;3.88;;
19191;SDS011;9728;48.194;16.346;2022-09-25T04:05:53;5.30;;;3.40;;
19191;SDS011;9728;48.194;16.346;2022-09-25T04:10:57;5.35;;;3.65;;
19191;SDS011;9728;48.194;16.346;2022-09-25T04:16:01;6.03;;;3.92;;
19191;SDS011;9728;48.194;16.346;2022-09-25T04:21:08;6.32;;;4.32;;
19191;SDS011;9728;48.194;16.346;2022-09-25T04:26:13;5.72;;;4.10;;
19191;SDS011;9728;48.194;16.346;2022-09-25T04:31:16;5.32;;;4.00;;
19191;SDS011;9728;48.194;16.346;2022-09-25T04:36:22;4.65;;;3.70;;
19191;SDS011;9728;48.194;16.346;2022-09-25T04:41:25;4.05;;;3.53;;
19191;SDS011;9728;48.194;16.346;2022-09-25T04:46:28;3.90;;;3.50;;
19191;SDS011;9728;48.194;16.346;2022-09-25T04:51:33;5.15;;;4.13;;
19191;SDS011;9728;48.194;16.346;2022-09-25T04:56:36;4.18;;;3.45;;
19191;SDS011;9728;48.194;16.346;2022-09-25T05:01:40;5.40;;;3.88;;
19191;SDS011;9728;48.194;16.346;2022-09-25T05:06:45;4.45;;;3.78;;
19191;SDS011;9728;48.194;16.346;2022-09-25T05:11:48;5.70;;;4.10;;
19191;SDS011;9728;48.194;16.346;2022-09-25T05:16:52;6.45;;;4.28;;
19191;SDS011;9728;48.194;16.346;2022-09-25T05:21:56;6.25;;;4.18;;
19191;SDS011;9728;48.194;16.346;2022-09-25T05:26:59;6.05;;;4.47;;
19191;SDS011;9728;48.194;16.346;2022-09-25T05:32:03;6.47;;;3.67;;
19191;SDS011;9728;48.194;16.346;2022-09-25T05:37:08;5.85;;;4.25;;
19191;SDS011;9728;48.194;16.346;2022-09-25T05:42:11;5.25;;;4.20;;
19191;SDS011;9728;48.194;16.346;2022-09-25T05:47:16;3.05;;;2.30;;
19191;SDS011;9728;48.194;16.346;2022-09-25T05:52:20;5.20;;;3.63;;
19191;SDS011;9728;48.194;16.346;2022-09-25T05:57:24;5.50;;;3.53;;
19191;SDS011;9728;48.194;16.346;2022-09-25T06:02:28;5.25;;;3.47;;
19191;SDS011;9728;48.194;16.346;2022-09-25T06:07:32;4.47;;;3.65;;
19191;SDS011;9728;48.194;16.346;2022-09-25T06:12:36;5.85;;;3.85;;
19191;SDS011;9728;48.194;16.346;2022-09-25T06:17:39;6.53;;;4.20;;
19191;SDS011;9728;48.194;16.346;2022-09-25T06:22:43;4.13;;;3.47;;
19191;SDS011;9728;48.194;16.346;2022-09-25T06:27:54;4.72;;;3.42;;
19191;SDS011;9728;48.194;16.346;2022-09-25T06:32:58;5.40;;;3.88;;
19191;SDS011;9728;48.194;16.346;2022-09-25T06:38:03;5.45;;;3.75;;
19191;SDS011;9728;48.194;16.346;2022-09-25T06:43:08;4.68;;;3.45;;
19191;SDS011;9728;48.194;16.346;2022-09-25T06:48:13;5.63;;;4.18;;
19191;SDS011;9728;48.194;16.346;2022-09-25T06:53:19;4.53;;;3.70;;
19191;SDS011;9728;48.194;16.346;2022-09-25T06:58:24;5.88;;;4.15;;
19191;SDS011;9728;48.194;16.346;2022-09-25T07:03:28;5.28;;;4.22;;
19191;SDS011;9728;48.194;16.346;2022-09-25T07:08:49;6.05;;;4.00;;
19191;SDS011;9728;48.194;16.346;2022-09-25T07:13:53;4.82;;;3.72;;
19191;SDS011;9728;48.194;16.346;2022-09-25T07:18:56;5.68;;;4.38;;
19191;SDS011;9728;48.194;16.346;2022-09-25T07:24:03;5.93;;;4.18;;
19191;SDS011;9728;48.194;16.346;2022-09-25T07:29:07;5.30;;;3.70;;
19191;SDS011;9728;48.194;16.346;2022-09-25T07:34:10;4.88;;;4.10;;
19191;SDS011;9728;48.194;16.346;2022-09-25T07:39:15;5.10;;;3.92;;
19191;SDS011;9728;48.194;16.346;2022-09-25T07:44:19;3.45;;;3.05;;
19191;SDS011;9728;48.194;16.346;2022-09-25T07:49:31;3.92;;;3.08;;
19191;SDS011;9728;48.194;16.346;2022-09-25T07:54:36;4.20;;;3.22;;
19191;SDS011;9728;48.194;16.346;2022-09-25T07:59:40;3.67;;;3.08;;
19191;SDS011;9728;48.194;16.346;2022-09-25T08:04:43;4.07;;;3.25;;
19191;SDS011;9728;48.194;16.346;2022-09-25T08:09:48;3.88;;;3.25;;
19191;SDS011;9728;48.194;16.346;2022-09-25T08:14:51;5.70;;;3.55;;
19191;SDS011;9728;48.194;16.346;2022-09-25T08:19:54;4.68;;;3.85;;
19191;SDS011;9728;48.194;16.346;2022-09-25T08:24:59;5.00;;;3.58;;
19191;SDS011;9728;48.194;16.346;2022-09-25T08:30:03;4.85;;;3.95;;
19191;SDS011;9728;48.194;16.346;2022-09-25T08:35:09;5.82;;;4.05;;
19191;SDS011;9728;48.194;16.346;2022-09-25T08:40:17;6.15;;;4.93;;
19191;SDS011;9728;48.194;16.346;2022-09-25T08:45:26;6.25;;;4.28;;
19191;SDS011;9728;48.194;16.346;2022-09-25T08:50:50;6.60;;;4.68;;
19191;SDS011;9728;48.194;16.346;2022-09-25T08:55:55;4.88;;;3.88;;
19191;SDS011;9728;48.194;16.346;2022-09-25T09:01:19;6.38;;;4.90;;
19191;SDS011;9728;48.194;16.346;2022-09-25T09:06:26;5.15;;;4.10;;
19191;SDS011;9728;48.194;16.346;2022-09-25T09:11:32;4.93;;;4.43;;
19191;SDS011;9728;48.194;16.346;2022-09-25T09:16:40;6.70;;;4.05;;
19191;SDS011;9728;48.194;16.346;2022-09-25T09:21:47;5.55;;;4.50;;
19191;SDS011;9728;48.194;16.346;2022-09-25T09:27:02;4.63;;;3.90;;
19191;SDS011;9728;48.194;16.346;2022-09-25T09:32:20;5.00;;;4.15;;
19191;SDS011;9728;48.194;16.346;2022-09-25T09:37:52;5.25;;;4.53;;
19191;SDS011;9728;48.194;16.346;2022-09-25T09:43:10;6.18;;;4.50;;
19191;SDS011;9728;48.194;16.346;2022-09-25T09:48:23;5.57;;;4.65;;
19191;SDS011;9728;48.194;16.346;2022-09-25T09:53:32;6.85;;;5.13;;
19191;SDS011;9728;48.194;16.346;2022-09-25T09:58:43;6.35;;;4.85;;
19191;SDS011;9728;48.194;16.346;2022-09-25T10:03:53;6.10;;;4.50;;
19191;SDS011;9728;48.194;16.346;2022-09-25T10:09:05;5.18;;;4.45;;
19191;SDS011;9728;48.194;16.346;2022-09-25T10:14:14;5.75;;;4.85;;
19191;SDS011;9728;48.194;16.346;2022-09-25T10:19:22;6.85;;;4.47;;
19191;SDS011;9728;48.194;16.346;2022-09-25T10:24:47;6.07;;;4.68;;
19191;SDS011;9728;48.194;16.346;2022-09-25T10:30:14;5.75;;;4.00;;
19191;SDS011;9728;48.194;16.346;2022-09-25T10:35:23;5.40;;;4.45;;
19191;SDS011;9728;48.194;16.346;2022-09-25T10:40:29;5.45;;;3.92;;
19191;SDS011;9728;48.194;16.346;2022-09-25T10:45:37;6.10;;;4.53;;
19191;SDS011;9728;48.194;16.346;2022-09-25T10:50:42;5.03;;;4.43;;
19191;SDS011;9728;48.194;16.346;2022-09-25T10:55:45;7.25;;;4.70;;
19191;SDS011;9728;48.194;16.346;2022-09-25T11:00:57;5.90;;;4.35;;
19191;SDS011;9728;48.194;16.346;2022-09-25T11:06:03;5.28;;;4.28;;
19191;SDS011;9728;48.194;16.346;2022-09-25T11:11:09;4.72;;;4.03;;
19191;SDS011;9728;48.194;16.346;2022-09-25T11:16:15;6.25;;;4.68;;
19191;SDS011;9728;48.194;16.346;2022-09-25T11:21:21;7.95;;;4.47;;
19191;SDS011;9728;48.194;16.346;2022-09-25T11:26:29;4.95;;;3.53;;
19191;SDS011;9728;48.194;16.346;2022-09-25T11:31:40;5.05;;;4.22;;
19191;SDS011;9728;48.194;16.346;2022-09-25T11:36:47;5.53;;;4.00;;
19191;SDS011;9728;48.194;16.346;2022-09-25T11:41:55;5.88;;;4.47;;
19191;SDS011;9728;48.194;16.346;2022-09-25T11:47:05;4.40;;;3.78;;
19191;SDS011;9728;48.194;16.346;2022-09-25T11:57:47;4.15;;;3.75;;
19191;SDS011;9728;48.194;16.346;2022-09-25T12:03:05;4.57;;;3.97;;
19191;SDS011;9728;48.194;16.346;2022-09-25T12:08:24;6.20;;;4.82;;
19191;SDS011;9728;48.194;16.346;2022-09-25T12:13:39;5.57;;;4.03;;
19191;SDS011;9728;48.194;16.346;2022-09-25T12:19:00;7.13;;;5.13;;
19191;SDS011;9728;48.194;16.346;2022-09-25T12:24:14;5.78;;;4.05;;
19191;SDS011;9728;48.194;16.346;2022-09-25T12:29:43;6.05;;;4.65;;
19191;SDS011;9728;48.194;16.346;2022-09-25T12:35:06;6.47;;;4.55;;
19191;SDS011;9728;48.194;16.346;2022-09-25T12:40:19;4.60;;;3.67;;
19191;SDS011;9728;48.194;16.346;2022-09-25T12:45:29;4.78;;;3.88;;
19191;SDS011;9728;48.194;16.346;2022-09-25T12:50:40;4.18;;;3.67;;
19191;SDS011;9728;48.194;16.346;2022-09-25T12:55:49;5.63;;;4.10;;
19191;SDS011;9728;48.194;16.346;2022-09-25T13:00:58;6.00;;;3.47;;
19191;SDS011;9728;48.194;16.346;2022-09-25T13:06:10;4.80;;;3.90;;
19191;SDS011;9728;48.194;16.346;2022-09-25T13:11:21;4.28;;;3.50;;
19191;SDS011;9728;48.194;16.346;2022-09-25T13:16:35;4.70;;;3.85;;
19191;SDS011;9728;48.194;16.346;2022-09-25T13:21:39;4.35;;;3.45;;
19191;SDS011;9728;48.194;16.346;2022-09-25T13:26:45;4.68;;;3.50;;
19191;SDS011;9728;48.194;16.346;2022-09-25T13:32:00;4.10;;;3.50;;
19191;SDS011;9728;48.194;16.346;2022-09-25T13:37:08;3.80;;;3.25;;
19191;SDS011;9728;48.194;16.346;2022-09-25T13:42:13;5.35;;;3.88;;
19191;SDS011;9728;48.194;16.346;2022-09-25T13:47:50;4.40;;;4.00;;
19191;SDS011;9728;48.194;16.346;2022-09-25T13:53:12;3.65;;;3.35;;
19191;SDS011;9728;48.194;16.346;2022-09-25T13:58:21;3.75;;;3.28;;
19191;SDS011;9728;48.194;16.346;2022-09-25T14:03:27;4.70;;;3.30;;
19191;SDS011;9728;48.194;16.346;2022-09-25T14:08:37;4.03;;;3.63;;
19191;SDS011;9728;48.194;16.346;2022-09-25T14:13:43;4.65;;;4.22;;
19191;SDS011;9728;48.194;16.346;2022-09-25T14:18:47;4.15;;;3.67;;
19191;SDS011;9728;48.194;16.346;2022-09-25T14:23:57;4.85;;;4.10;;
19191;SDS011;9728;48.194;16.346;2022-09-25T14:29:16;4.47;;;4.07;;
19191;SDS011;9728;48.194;16.346;2022-09-25T14:34:36;4.10;;;3.70;;
19191;SDS011;9728;48.194;16.346;2022-09-25T14:39:52;5.28;;;4.40;;
19191;SDS011;9728;48.194;16.346;2022-09-25T14:45:06;5.38;;;3.97;;
19191;SDS011;9728;48.194;16.346;2022-09-25T14:50:27;3.80;;;3.17;;
19191;SDS011;9728;48.194;16.346;2022-09-25T14:55:35;6.32;;;3.97;;
19191;SDS011;9728;48.194;16.346;2022-09-25T15:00:43;4.03;;;3.65;;
19191;SDS011;9728;48.194;16.346;2022-09-25T15:05:48;4.60;;;3.63;;
19191;SDS011;9728;48.194;16.346;2022-09-25T15:11:00;4.30;;;3.67;;
19191;SDS011;9728;48.194;16.346;2022-09-25T15:16:06;3.83;;;3.45;;
19191;SDS011;9728;48.194;16.346;2022-09-25T15:21:32;3.92;;;3.53;;
19191;SDS011;9728;48.194;16.346;2022-09-25T15:26:39;5.32;;;4.72;;
19191;SDS011;9728;48.194;16.346;2022-09-25T15:31:49;5.63;;;3.75;;
19191;SDS011;9728;48.194;16.346;2022-09-25T15:36:53;4.38;;;3.72;;
19191;SDS011;9728;48.194;16.346;2022-09-25T15:41:57;4.95;;;4.00;;
19191;SDS011;9728;48.194;16.346;2022-09-25T15:47:01;3.85;;;3.33;;
19191;SDS011;9728;48.194;16.346;2022-09-25T15:52:04;3.97;;;3.58;;
19191;SDS011;9728;48.194;16.346;2022-09-25T15:57:24;4.93;;;3.60;;
19191;SDS011;9728;48.194;16.346;2022-09-25T16:02:30;4.90;;;4.20;;
19191;SDS011;9728;48.194;16.346;2022-09-25T16:08:13;3.97;;;3.42;;
19191;SDS011;9728;48.194;16.346;2022-09-25T16:13:20;3.75;;;3.38;;
19191;SDS011;9728;48.194;16.346;2022-09-25T16:18:28;4.88;;;3.78;;
19191;SDS011;9728;48.194;16.346;2022-09-25T16:23:36;5.75;;;3.75;;
19191;SDS011;9728;48.194;16.346;2022-09-25T16:28:46;6.20;;;4.63;;
19191;SDS011;9728;48.194;16.346;2022-09-25T16:33:55;4.10;;;3.70;;
19191;SDS011;9728;48.194;16.346;2022-09-25T16:39:02;4.20;;;3.80;;
19191;SDS011;9728;48.194;16.346;2022-09-25T16:44:15;6.18;;;3.58;;
19191;SDS011;9728;48.194;16.346;2022-09-25T16:49:20;4.90;;;4.13;;
19191;SDS011;9728;48.194;16.346;2022-09-25T16:54:25;5.95;;;4.28;;
19191;SDS011;9728;48.194;16.346;2022-09-25T16:59:32;5.10;;;3.80;;
19191;SDS011;9728;48.194;16.346;2022-09-25T17:04:35;4.95;;;3.72;;
19191;SDS011;9728;48.194;16.346;2022-09-25T17:09:39;3.63;;;2.95;;
19191;SDS011;9728;48.194;16.346;2022-09-25T17:14:43;4.10;;;3.15;;
19191;SDS011;9728;48.194;16.346;2022-09-25T17:19:47;4.65;;;3.33;;
19191;SDS011;9728;48.194;16.346;2022-09-25T17:24:51;4.35;;;3.50;;
19191;SDS011;9728;48.194;16.346;2022-09-25T17:29:55;4.60;;;3.28;;
19191;SDS011;9728;48.194;16.346;2022-09-25T17:34:59;3.97;;;3.58;;
19191;SDS011;9728;48.194;16.346;2022-09-25T17:40:03;4.85;;;3.63;;
19191;SDS011;9728;48.194;16.346;2022-09-25T17:45:11;4.65;;;3.30;;
19191;SDS011;9728;48.194;16.346;2022-09-25T17:50:24;4.10;;;3.70;;
19191;SDS011;9728;48.194;16.346;2022-09-25T17:55:28;3.72;;;3.17;;
19191;SDS011;9728;48.194;16.346;2022-09-25T18:00:33;6.03;;;3.50;;
19191;SDS011;9728;48.194;16.346;2022-09-25T18:05:37;3.65;;;3.33;;
19191;SDS011;9728;48.194;16.346;2022-09-25T18:10:40;3.85;;;1.83;;
19191;SDS011;9728;48.194;16.346;2022-09-25T18:15:46;4.05;;;3.30;;
19191;SDS011;9728;48.194;16.346;2022-09-25T18:20:51;5.15;;;3.65;;
19191;SDS011;9728;48.194;16.346;2022-09-25T18:26:12;4.25;;;3.08;;
19191;SDS011;9728;48.194;16.346;2022-09-25T18:31:17;3.90;;;3.25;;
19191;SDS011;9728;48.194;16.346;2022-09-25T18:36:20;4.38;;;3.25;;
19191;SDS011;9728;48.194;16.346;2022-09-25T18:41:24;5.43;;;4.13;;
19191;SDS011;9728;48.194;16.346;2022-09-25T18:46:29;5.57;;;4.20;;
19191;SDS011;9728;48.194;16.346;2022-09-25T18:51:33;4.40;;;3.88;;
19191;SDS011;9728;48.194;16.346;2022-09-25T18:56:36;4.45;;;3.60;;
19191;SDS011;9728;48.194;16.346;2022-09-25T19:01:41;4.05;;;3.45;;
19191;SDS011;9728;48.194;16.346;2022-09-25T19:06:44;5.03;;;3.92;;
19191;SDS011;9728;48.194;16.346;2022-09-25T19:11:48;6.05;;;4.68;;
19191;SDS011;9728;48.194;16.346;2022-09-25T19:16:53;4.40;;;3.85;;
19191;SDS011;9728;48.194;16.346;2022-09-25T19:21:56;4.30;;;3.28;;
19191;SDS011;9728;48.194;16.346;2022-09-25T19:26:59;4.90;;;3.97;;
19191;SDS011;9728;48.194;16.346;2022-09-25T19:32:04;5.93;;;4.60;;
19191;SDS011;9728;48.194;16.346;2022-09-25T19:37:09;4.63;;;4.00;;
19191;SDS011;9728;48.194;16.346;2022-09-25T19:42:13;4.78;;;3.92;;
19191;SDS011;9728;48.194;16.346;2022-09-25T19:47:17;5.63;;;4.10;;
19191;SDS011;9728;48.194;16.346;2022-09-25T19:52:21;4.03;;;3.38;;
19191;SDS011;9728;48.194;16.346;2022-09-25T19:57:24;4.35;;;3.40;;
19191;SDS011;9728;48.194;16.346;2022-09-25T20:02:29;4.95;;;3.67;;
19191;SDS011;9728;48.194;16.346;2022-09-25T20:07:32;4.38;;;3.05;;
19191;SDS011;9728;48.194;16.346;2022-09-25T20:12:35;3.60;;;3.30;;
19191;SDS011;9728;48.194;16.346;2022-09-25T20:17:40;3.97;;;3.30;;
19191;SDS011;9728;48.194;16.346;2022-09-25T20:22:43;3.67;;;3.33;;
19191;SDS011;9728;48.194;16.346;2022-09-25T20:27:47;3.80;;;3.40;;
19191;SDS011;9728;48.194;16.346;2022-09-25T20:32:52;3.90;;;3.55;;
19191;SDS011;9728;48.194;16.346;2022-09-25T20:37:56;4.00;;;3.30;;
19191;SDS011;9728;48.194;16.346;2022-09-25T20:42:59;3.88;;;3.38;;
19191;SDS011;9728;48.194;16.346;2022-09-25T20:48:04;4.30;;;3.78;;
19191;SDS011;9728;48.194;16.346;2022-09-25T20:53:07;3.72;;;3.22;;
19191;SDS011;9728;48.194;16.346;2022-09-25T20:58:10;4.15;;;3.25;;
19191;SDS011;9728;48.194;16.346;2022-09-25T21:03:15;3.88;;;3.17;;
19191;SDS011;9728;48.194;16.346;2022-09-25T21:08:18;3.25;;;2.95;;
19191;SDS011;9728;48.194;16.346;2022-09-25T21:13:22;3.70;;;2.95;;
19191;SDS011;9728;48.194;16.346;2022-09-25T21:18:28;3.53;;;3.22;;
19191;SDS011;9728;48.194;16.346;2022-09-25T21:23:31;4.15;;;3.22;;
19191;SDS011;9728;48.194;16.346;2022-09-25T21:28:35;3.10;;;2.65;;
19191;SDS011;9728;48.194;16.346;2022-09-25T21:33:40;4.68;;;3.80;;
19191;SDS011;9728;48.194;16.346;2022-09-25T21:38:44;3.47;;;3.10;;
19191;SDS011;9728;48.194;16.346;2022-09-25T21:43:51;3.67;;;3.13;;
19191;SDS011;9728;48.194;16.346;2022-09-25T21:48:57;4.65;;;3.10;;
19191;SDS011;9728;48.194;16.346;2022-09-25T21:54:02;4.25;;;3.05;;
19191;SDS011;9728;48.194;16.346;2022-09-25T21:59:08;5.63;;;4.68;;
19191;SDS011;9728;48.194;16.346;2022-09-25T22:04:13;6.07;;;4.82;;
19191;SDS011;9728;48.194;16.346;2022-09-25T22:09:17;5.80;;;4.55;;
19191;SDS011;9728;48.194;16.346;2022-09-25T22:14:21;6.50;;;4.78;;
19191;SDS011;9728;48.194;16.346;2022-09-25T22:19:26;6.20;;;5.38;;
19191;SDS011;9728;48.194;16.346;2022-09-25T22:24:30;6.25;;;5.07;;
19191;SDS011;9728;48.194;16.346;2022-09-25T22:29:34;6.18;;;5.30;;
19191;SDS011;9728;48.194;16.346;2022-09-25T22:34:39;5.28;;;4.68;;
19191;SDS011;9728;48.194;16.346;2022-09-25T22:39:42;6.20;;;4.90;;
19191;SDS011;9728;48.194;16.346;2022-09-25T22:44:46;6.38;;;4.97;;
19191;SDS011;9728;48.194;16.346;2022-09-25T22:49:50;6.40;;;4.97;;
19191;SDS011;9728;48.194;16.346;2022-09-25T22:54:53;5.57;;;4.45;;
19191;SDS011;9728;48.194;16.346;2022-09-25T22:59:57;7.43;;;5.32;;
19191;SDS011;9728;48.194;16.346;2022-09-25T23:05:01;5.93;;;4.82;;
19191;SDS011;9728;48.194;16.346;2022-09-25T23:10:07;7.75;;;5.68;;
19191;SDS011;9728;48.194;16.346;2022-09-25T23:15:11;5.85;;;5.03;;
19191;SDS011;9728;48.194;16.346;2022-09-25T23:20:15;7.88;;;6.03;;
19191;SDS011;9728;48.194;16.346;2022-09-25T23:25:19;6.90;;;5.32;;
19191;SDS011;9728;48.194;16.346;2022-09-25T23:30:23;8.35;;;6.22;;
19191;SDS011;9728;48.194;16.346;2022-09-25T23:35:28;8.30;;;6.07;;
19191;SDS011;9728;48.194;16.346;2022-09-25T23:40:34;7.50;;;5.63;;
19191;SDS011;9728;48.194;16.346;2022-09-25T23:45:38;6.75;;;5.28;;
19191;SDS011;9728;48.194;16.346;2022-09-25T23:50:43;5.43;;;4.78;;
19191;SDS011;9728;48.194;16.346;2022-09-25T23:55:46;5.47;;;4.57;;
